Time;durP1;ratioP1;P1;durP2;ratioP2;P2;SDS_P1;SDS_P2;PMS_P1;PMS_P2;Temp;Humidity;BMP_temperature;BMP_pressure;BME280_temperature;BME280_humidity;BME280_pressure;Samples;Min_cycle;Max_cycle;Signal;HPM_P1;HPM_P2
2021/09/11 08:04:52;;;;;;;0.80;0.63;;;;;;;22.37;100.00;-21286.91;6275919;22;20405;-73
2021/09/11 08:07:20;;;;;;;0.70;0.60;;;;;;;22.72;100.00;-21296.16;6276540;22;20387;-72
2021/09/11 08:09:47;;;;;;;0.73;0.67;;;;;;;23.19;100.00;-21308.81;6249833;22;20453;-72
2021/09/11 08:12:14;;;;;;;0.80;0.60;;;;;;;23.33;100.00;-21312.50;6249039;22;20398;-73
2021/09/11 08:14:41;;;;;;;0.70;0.60;;;;;;;23.32;100.00;-21312.22;6276376;22;20367;-72
2021/09/11 08:17:08;;;;;;;0.70;0.60;;;;;;;23.18;100.00;-21308.41;6274719;22;20379;-73
2021/09/11 08:19:35;;;;;;;0.80;0.70;;;;;;;23.24;100.00;-21310.06;6249203;22;20486;-74
2021/09/11 08:22:03;;;;;;;0.70;0.60;;;;;;;22.99;100.00;-21303.53;6248094;22;20521;-73
2021/09/11 08:24:30;;;;;;;0.70;0.60;;;;;;;23.41;100.00;-21314.66;6276740;22;20907;-73
2021/09/11 08:26:57;;;;;;;2.70;2.40;;;;;;;23.36;100.00;-21313.31;6223733;22;20427;-73
2021/09/11 08:29:24;;;;;;;0.70;0.60;;;;;;;22.92;100.00;-21301.63;6248942;22;20375;-73
2021/09/11 08:31:51;;;;;;;0.73;0.67;;;;;;;23.09;100.00;-21306.25;6276373;22;20713;-73
2021/09/11 08:34:18;;;;;;;0.70;0.60;;;;;;;23.41;100.00;-21314.66;6276521;22;20375;-72
2021/09/11 08:36:45;;;;;;;0.80;0.70;;;;;;;23.62;100.00;-21320.38;6249014;22;20422;-74
2021/09/11 08:39:26;;;;;;;0.70;0.60;;;;;;;24.57;100.00;-21345.53;6226830;22;20426;-73
2021/09/11 08:41:54;;;;;;;0.80;0.70;;;;;;;25.10;100.00;-21359.50;6223324;22;20430;-75
2021/09/11 08:44:23;;;;;;;0.70;0.60;;;;;;;24.49;100.00;-21343.47;6276964;22;20710;-74
2021/09/11 08:46:50;;;;;;;0.70;0.60;;;;;;;24.31;100.00;-21338.72;6249571;22;20462;-73
2021/09/11 08:49:18;;;;;;;0.70;0.60;;;;;;;24.81;100.00;-21351.91;6276734;22;20701;-74
2021/09/11 08:51:45;;;;;;;0.70;0.60;;;;;;;23.94;100.00;-21328.69;6249355;22;20403;-74
2021/09/11 08:54:19;;;;;;;0.70;0.50;;;;;;;24.22;100.00;-21336.16;6276463;22;20449;-73
2021/09/11 08:56:50;;;;;;;0.70;0.50;;;;;;;24.40;100.00;-21340.91;6248448;22;20387;-73
2021/09/11 08:59:19;;;;;;;0.70;0.50;;;;;;;24.88;100.00;-21353.78;6249531;22;20885;-74
2021/09/11 09:02:04;;;;;;;0.83;0.83;;;;;;;24.79;100.00;-21351.34;6250469;22;20410;-74
2021/09/11 09:04:51;;;;;;;0.97;0.67;;;;;;;24.38;100.00;-21340.50;6250041;22;20406;-73
2021/09/11 09:07:38;;;;;;;0.70;0.50;;;;;;;24.27;100.00;-21337.63;6224221;22;20441;-73
2021/09/11 09:10:10;;;;;;;0.70;0.60;;;;;;;23.46;100.00;-21315.91;6250118;22;20391;-74
2021/09/11 09:12:41;;;;;;;0.70;0.50;;;;;;;23.01;100.00;-21304.06;6248171;22;20914;-73
2021/09/11 09:15:10;;;;;;;0.70;0.60;;;;;;;23.27;100.00;-21311.00;6248818;22;20441;-73
2021/09/11 09:17:39;;;;;;;0.80;0.60;;;;;;;23.33;100.00;-21312.63;6247008;22;20478;-73
2021/09/11 09:20:12;;;;;;;0.80;0.60;;;;;;;23.41;100.00;-21314.66;6274045;22;20856;-73
2021/09/11 09:22:40;;;;;;;0.70;0.60;;;;;;;23.05;100.00;-21305.16;6274551;22;20509;-74
2021/09/11 09:25:19;;;;;;;0.80;0.60;;;;;;;22.84;100.00;-21299.56;6276066;22;20481;-74
2021/09/11 09:27:50;;;;;;;0.80;0.70;;;;;;;22.62;100.00;-21293.59;6275385;22;20371;-74
2021/09/11 09:30:22;;;;;;;0.70;0.60;;;;;;;22.86;100.00;-21300.13;6249918;22;20433;-74
2021/09/11 09:32:50;;;;;;;0.70;0.50;;;;;;;22.92;100.00;-21301.63;6251533;22;20464;-73
2021/09/11 09:35:22;;;;;;;0.70;0.60;;;;;;;22.67;100.00;-21294.94;6277725;22;20859;-74
2021/09/11 09:37:53;;;;;;;0.70;0.57;;;;;;;22.49;100.00;-21290.19;6250975;22;20403;-74
2021/09/11 09:40:33;;;;;;;0.70;0.60;;;;;;;22.54;100.00;-21291.53;6252100;22;20368;-73
2021/09/11 09:43:01;;;;;;;0.70;0.60;;;;;;;22.28;100.00;-21284.47;6250968;22;20446;-73
2021/09/11 09:45:30;;;;;;;0.70;0.60;;;;;;;22.19;100.00;-21282.28;6251262;22;20409;-73
2021/09/11 09:48:05;;;;;;;0.80;0.70;;;;;;;22.23;100.00;-21283.09;6251169;22;20425;-73
2021/09/11 09:50:34;;;;;;;0.70;0.60;;;;;;;22.19;100.00;-21282.28;6278787;22;20420;-74
2021/09/11 09:53:01;;;;;;;0.70;0.60;;;;;;;22.45;100.00;-21289.09;6251413;22;20422;-72
2021/09/11 09:55:29;;;;;;;0.70;0.60;;;;;;;22.85;100.00;-21299.72;6277545;22;20386;-73
2021/09/11 09:57:56;;;;;;;0.70;0.60;;;;;;;24.65;100.00;-21347.56;6277550;22;20474;-72
2021/09/11 10:00:25;;;;;;;0.70;0.60;;;;;;;24.77;100.00;-21350.81;6226628;22;20403;-72
2021/09/11 10:02:52;;;;;;;0.73;0.60;;;;;;;24.01;100.00;-21330.59;6278127;22;20454;-73
2021/09/11 10:05:24;;;;;;;0.70;0.60;;;;;;;23.84;100.00;-21326.09;6278247;22;20422;-73
2021/09/11 10:08:00;;;;;;;0.70;0.60;;;;;;;23.96;100.00;-21329.34;6277968;22;20403;-73
2021/09/11 10:10:29;;;;;;;0.70;0.60;;;;;;;24.47;100.00;-21342.81;6250931;22;20584;-73
2021/09/11 10:13:10;;;;;;;0.70;0.60;;;;;;;23.79;100.00;-21324.75;6248731;22;20694;-74
2021/09/11 10:15:52;;;;;;;0.70;0.60;;;;;;;23.80;100.00;-21325.00;6250270;22;20378;-74
2021/09/11 10:18:39;;;;;;;0.90;0.67;;;;;;;24.23;100.00;-21336.41;6278248;22;20677;-74
2021/09/11 10:21:39;;;;;;;0.70;0.60;;;;;;;23.63;100.00;-21320.53;6250980;22;20434;-73
2021/09/11 10:24:26;;;;;;;0.70;0.60;;;;;;;23.59;100.00;-21319.56;6277391;22;20942;-74
2021/09/11 10:26:54;;;;;;;0.80;0.70;;;;;;;23.33;100.00;-21312.50;6277726;22;20441;-74
2021/09/11 10:30:00;;;;;;;0.70;0.60;;;;;;;22.86;100.00;-21299.97;6277800;22;20364;-74
2021/09/11 10:32:38;;;;;;;0.80;0.60;;;;;;;23.32;100.00;-21312.38;6225884;22;20456;-74
2021/09/11 10:35:07;;;;;;;0.80;0.60;;;;;;;23.39;100.00;-21314.13;6250501;22;20403;-73
2021/09/11 10:37:43;;;;;;;0.70;0.60;;;;;;;24.54;100.00;-21344.84;6251174;22;20491;-73
2021/09/11 10:40:28;;;;;;;0.70;0.60;;;;;;;25.25;100.00;-21363.56;6278038;22;20368;-73
2021/09/11 10:43:10;;;;;;;0.70;0.60;;;;;;;25.02;100.00;-21357.59;6250651;22;20421;-73
2021/09/11 10:45:40;;;;;;;0.70;0.60;;;;;;;24.87;100.00;-21353.53;6277987;22;20363;-73
2021/09/11 10:48:33;;;;;;;0.97;0.87;;;;;;;24.54;100.00;-21344.69;6250365;22;20415;-73
2021/09/11 10:51:18;;;;;;;0.70;0.60;;;;;;;23.75;100.00;-21323.66;6250317;22;20759;-73
2021/09/11 10:53:57;;;;;;;0.80;0.60;;;;;;;23.70;100.00;-21322.28;6225170;22;20476;-74
2021/09/11 10:56:25;;;;;;;0.80;0.80;;;;;;;24.13;100.00;-21333.84;6250985;22;20372;-73
2021/09/11 10:59:27;;;;;;;0.70;0.60;;;;;;;24.31;100.00;-21338.72;6277514;22;20371;-74
2021/09/11 11:01:56;;;;;;;0.70;0.60;;;;;;;24.15;100.00;-21334.25;6250821;22;20480;-73
2021/09/11 11:04:27;;;;;;;0.70;0.60;;;;;;;24.13;100.00;-21333.69;6277806;22;20388;-73
2021/09/11 11:06:56;;;;;;;0.70;0.60;;;;;;;24.27;100.00;-21337.50;6277700;22;20833;-73
2021/09/11 11:09:25;;;;;;;0.80;0.80;;;;;;;24.19;100.00;-21335.31;6277280;22;20418;-72
2021/09/11 11:11:53;;;;;;;0.70;0.60;;;;;;;23.41;100.00;-21314.66;6277366;22;20437;-72
2021/09/11 11:14:21;;;;;;;0.70;0.60;;;;;;;23.44;100.00;-21315.50;6224939;22;20394;-73
2021/09/11 11:16:49;;;;;;;0.77;0.60;;;;;;;22.76;100.00;-21297.41;6250978;22;20383;-72
2021/09/11 11:19:21;;;;;;;0.80;0.70;;;;;;;22.41;100.00;-21288.00;6250643;22;20375;-73
2021/09/11 11:21:58;;;;;;;0.80;0.70;;;;;;;22.85;100.00;-21299.84;6277840;22;20411;-74
2021/09/11 11:24:28;;;;;;;0.70;0.60;;;;;;;22.77;100.00;-21297.53;6277615;22;20377;-72
2021/09/11 11:26:58;;;;;;;0.70;0.60;;;;;;;23.07;100.00;-21305.69;6251353;22;20750;-73
2021/09/11 11:29:25;;;;;;;0.70;0.60;;;;;;;23.30;100.00;-21311.81;6276618;22;20475;-72
2021/09/11 11:31:52;;;;;;;1.20;1.10;;;;;;;23.14;100.00;-21307.47;6277645;22;20367;-73
2021/09/11 11:34:19;;;;;;;0.70;0.60;;;;;;;23.27;100.00;-21310.88;6277363;22;20383;-72
2021/09/11 11:36:48;;;;;;;0.70;0.60;;;;;;;23.33;100.00;-21312.63;6251152;22;20379;-72
2021/09/11 11:39:23;;;;;;;0.80;0.70;;;;;;;23.42;100.00;-21314.94;6250769;22;20534;-74
2021/09/11 11:42:01;;;;;;;0.70;0.60;;;;;;;23.33;100.00;-21312.63;6224688;22;20426;-74
2021/09/11 11:44:30;;;;;;;0.70;0.70;;;;;;;23.20;100.00;-21308.97;6249010;22;20399;-73
2021/09/11 11:47:12;;;;;;;0.80;0.60;;;;;;;23.07;100.00;-21305.56;6278528;22;20832;-74
2021/09/11 11:49:40;;;;;;;0.80;0.70;;;;;;;22.91;100.00;-21301.34;6279088;22;20403;-73
2021/09/11 11:52:08;;;;;;;1.33;1.23;;;;;;;22.92;100.00;-21301.63;6277423;22;20367;-73
2021/09/11 11:54:38;;;;;;;0.70;0.60;;;;;;;23.42;100.00;-21314.81;6250119;22;20395;-72
2021/09/11 11:57:08;;;;;;;0.70;0.50;;;;;;;23.61;100.00;-21319.97;6249874;22;20915;-74
2021/09/11 11:59:36;;;;;;;0.73;0.60;;;;;;;23.38;100.00;-21313.84;6248418;22;20465;-74
2021/09/11 12:02:24;;;;;;;0.97;0.77;;;;;;;23.18;100.00;-21308.56;6248603;22;20883;-73
2021/09/11 12:04:53;;;;;;;0.70;0.60;;;;;;;23.41;100.00;-21314.53;6247352;22;20437;-73
2021/09/11 12:07:27;;;;;;;0.70;0.60;;;;;;;23.41;100.00;-21314.66;6272557;22;20421;-74
2021/09/11 12:10:00;;;;;;;0.70;0.60;;;;;;;23.34;100.00;-21312.78;6222460;22;20442;-73
2021/09/11 12:12:44;;;;;;;0.80;0.70;;;;;;;23.77;100.00;-21324.19;6274871;22;20421;-73
2021/09/11 12:15:13;;;;;;;0.83;0.80;;;;;;;23.79;100.00;-21324.75;6248846;22;20395;-73
2021/09/11 12:17:59;;;;;;;0.70;0.60;;;;;;;24.04;100.00;-21331.53;6277422;22;20394;-73
2021/09/11 12:20:43;;;;;;;1.10;1.00;;;;;;;23.86;100.00;-21326.78;6276006;22;20744;-73
2021/09/11 12:23:14;;;;;;;0.70;0.60;;;;;;;24.65;100.00;-21347.56;6249946;22;20454;-72
2021/09/11 12:25:58;;;;;;;0.70;0.60;;;;;;;25.81;100.00;-21378.47;6250701;22;20441;-72
2021/09/11 12:28:36;;;;;;;0.80;0.63;;;;;;;26.33;100.00;-21392.16;6276860;22;20371;-73
2021/09/11 12:31:05;;;;;;;0.70;0.60;;;;;;;25.86;100.00;-21379.81;6249781;22;20477;-73
2021/09/11 12:33:44;;;;;;;0.70;0.60;;;;;;;26.60;100.00;-21399.31;6279359;22;20765;-73
2021/09/11 12:36:24;;;;;;;0.80;0.60;;;;;;;25.91;100.00;-21381.19;6250235;22;21024;-72
2021/09/11 12:38:53;;;;;;;0.70;0.60;;;;;;;26.30;100.00;-21391.47;6277424;22;20890;-73
2021/09/11 12:41:22;;;;;;;0.70;0.50;;;;;;;25.70;100.00;-21375.47;6277170;22;20467;-73
2021/09/11 12:43:49;;;;;;;0.80;0.67;;;;;;;25.43;100.00;-21368.44;6275531;22;20419;-72
2021/09/11 12:46:27;;;;;;;0.70;0.50;;;;;;;24.95;100.00;-21355.56;6277118;22;20403;-73
2021/09/11 12:48:54;;;;;;;0.70;0.60;;;;;;;24.38;100.00;-21340.34;6250923;22;20367;-73
2021/09/11 12:51:24;;;;;;;0.70;0.60;;;;;;;24.21;100.00;-21336.00;6249706;22;20423;-73
2021/09/11 12:53:51;;;;;;;0.70;0.60;;;;;;;24.31;100.00;-21338.59;6276663;22;20473;-73
2021/09/11 12:56:22;;;;;;;0.70;0.50;;;;;;;24.29;100.00;-21338.03;6250614;22;20518;-72
2021/09/11 12:58:52;;;;;;;0.70;0.60;;;;;;;23.95;100.00;-21329.09;6225119;22;20395;-73
2021/09/11 13:01:19;;;;;;;0.70;0.60;;;;;;;24.10;100.00;-21333.16;6226743;22;20406;-73
2021/09/11 13:03:49;;;;;;;0.70;0.60;;;;;;;24.02;100.00;-21331.00;6251527;22;20426;-73
2021/09/11 13:06:17;;;;;;;0.70;0.60;;;;;;;23.96;100.00;-21329.34;6252550;22;20464;-73
2021/09/11 13:08:44;;;;;;;0.80;0.70;;;;;;;24.13;100.00;-21333.84;6281502;22;20505;-74
2021/09/11 13:11:13;;;;;;;0.80;0.70;;;;;;;24.42;100.00;-21341.59;6251614;22;20930;-73
2021/09/11 13:13:42;;;;;;;0.70;0.60;;;;;;;24.75;100.00;-21350.28;6226407;22;20390;-72
2021/09/11 13:16:11;;;;;;;0.70;0.60;;;;;;;24.82;100.00;-21352.31;6278567;22;20421;-72
2021/09/11 13:18:43;;;;;;;0.70;0.60;;;;;;;24.53;100.00;-21344.56;6252950;22;20371;-71
2021/09/11 13:21:12;;;;;;;0.80;0.60;;;;;;;24.93;100.00;-21355.00;6278630;22;20769;-73
2021/09/11 13:23:41;;;;;;;0.70;0.60;;;;;;;24.94;100.00;-21355.41;6229174;22;20439;-73
2021/09/11 13:26:08;;;;;;;0.80;0.70;;;;;;;25.47;100.00;-21369.53;6251148;22;20440;-73
2021/09/11 13:28:36;;;;;;;0.70;0.60;;;;;;;25.91;100.00;-21381.03;6226127;22;20390;-72
2021/09/11 13:31:03;;;;;;;0.70;0.50;;;;;;;26.33;100.00;-21392.28;6252219;22;20897;-72
2021/09/11 13:33:32;;;;;;;0.70;0.50;;;;;;;27.13;100.00;-21413.38;6252013;22;20379;-72
2021/09/11 13:36:03;;;;;;;0.70;0.50;;;;;;;27.25;100.00;-21416.63;6278497;22;20694;-72
2021/09/11 13:38:31;;;;;;;0.70;0.50;;;;;;;26.93;100.00;-21408.25;6279166;22;20515;-73
2021/09/11 13:40:58;;;;;;;0.80;0.70;;;;;;;26.76;100.00;-21403.66;6278978;22;20450;-72
2021/09/11 13:43:25;;;;;;;0.70;0.50;;;;;;;25.95;100.00;-21382.25;6251572;22;20906;-72
2021/09/11 13:45:52;;;;;;;0.70;0.50;;;;;;;25.82;100.00;-21378.75;6251933;22;20734;-72
2021/09/11 13:48:20;;;;;;;0.70;0.50;;;;;;;25.48;100.00;-21369.66;6278061;22;20399;-74
2021/09/11 13:50:49;;;;;;;1.27;1.17;;;;;;;25.71;100.00;-21375.91;6226727;22;20481;-72
2021/09/11 13:53:16;;;;;;;0.70;0.53;;;;;;;25.66;100.00;-21374.53;6278022;22;20493;-73
2021/09/11 13:55:43;;;;;;;0.70;0.50;;;;;;;25.45;100.00;-21368.97;6278469;22;20738;-73
2021/09/11 13:58:10;;;;;;;0.80;0.60;;;;;;;25.60;100.00;-21372.78;6250515;22;20797;-73
2021/09/11 14:00:37;;;;;;;0.80;0.80;;;;;;;25.21;100.00;-21362.63;6251126;22;20414;-73
2021/09/11 14:03:06;;;;;;;0.70;0.50;;;;;;;24.89;100.00;-21354.06;6249573;22;20460;-71
2021/09/11 14:05:34;;;;;;;0.70;0.60;;;;;;;24.87;100.00;-21353.53;6277782;22;20399;-73
2021/09/11 14:08:02;;;;;;;0.70;0.50;;;;;;;24.98;100.00;-21356.50;6277770;22;20938;-73
2021/09/11 14:10:29;;;;;;;0.80;0.63;;;;;;;25.17;100.00;-21361.41;6278204;22;20890;-72
2021/09/11 14:12:56;;;;;;;1.20;1.03;;;;;;;24.91;100.00;-21354.47;6248895;22;20395;-73
2021/09/11 14:15:24;;;;;;;0.70;0.60;;;;;;;25.32;100.00;-21365.47;6223212;22;20445;-72
2021/09/11 14:17:51;;;;;;;0.70;0.60;;;;;;;25.24;100.00;-21363.44;6279488;22;20371;-73
2021/09/11 14:20:19;;;;;;;0.70;0.60;;;;;;;24.91;100.00;-21354.59;6278704;22;20380;-73
2021/09/11 14:22:50;;;;;;;0.70;0.60;;;;;;;25.00;100.00;-21357.06;6275531;22;20441;-73
2021/09/11 14:25:20;;;;;;;0.70;0.60;;;;;;;25.02;100.00;-21357.59;6275966;22;20387;-73
2021/09/11 14:27:47;;;;;;;0.70;0.50;;;;;;;25.31;100.00;-21365.19;6248431;22;20383;-73
2021/09/11 14:30:17;;;;;;;0.70;0.60;;;;;;;26.61;100.00;-21399.59;6250879;22;20422;-73
2021/09/11 14:32:44;;;;;;;0.80;0.60;;;;;;;27.65;100.00;-21427.19;6251184;22;20390;-72
2021/09/11 14:35:11;;;;;;;0.70;0.60;;;;;;;27.63;100.00;-21426.78;6254460;22;20486;-74
2021/09/11 14:37:39;;;;;;;0.70;0.60;;;;;;;27.39;100.00;-21420.41;6280190;22;20418;-74
2021/09/11 14:40:10;;;;;;;0.70;0.50;;;;;;;28.01;100.00;-21436.75;6253389;22;20835;-73
2021/09/11 14:42:40;;;;;;;0.70;0.60;;;;;;;28.17;100.00;-21441.09;6280174;22;20437;-73
2021/09/11 14:45:27;;;;;;;0.70;0.50;;;;;;;27.93;100.00;-21434.75;6252906;22;20399;-73
2021/09/11 14:47:54;;;;;;;0.80;0.70;;;;;;;28.38;100.00;-21446.63;6251551;22;20390;-74
2021/09/11 14:50:22;;;;;;;1.13;0.70;;;;;;;28.25;100.00;-21443.09;6226057;22;20398;-73
2021/09/11 14:52:49;;;;;;;0.70;0.50;;;;;;;28.55;100.00;-21451.06;6278076;22;20460;-72
2021/09/11 14:55:18;;;;;;;0.70;0.50;;;;;;;28.44;100.00;-21448.09;6251117;22;20958;-74
2021/09/11 14:57:46;;;;;;;0.80;0.60;;;;;;;28.04;100.00;-21437.56;6250316;22;20458;-72
2021/09/11 15:00:14;;;;;;;0.70;0.50;;;;;;;27.38;100.00;-21420.16;6278229;22;20375;-74
2021/09/11 15:02:41;;;;;;;0.70;0.50;;;;;;;27.08;100.00;-21412.16;6278290;22;20391;-73
2021/09/11 15:05:09;;;;;;;0.70;0.50;;;;;;;27.29;100.00;-21417.59;6251161;22;20474;-73
2021/09/11 15:07:36;;;;;;;0.80;0.60;;;;;;;26.58;100.00;-21398.78;6251547;22;20407;-73
2021/09/11 15:10:05;;;;;;;0.80;0.70;;;;;;;26.50;100.00;-21396.88;6250341;22;20429;-73
2021/09/11 15:12:32;;;;;;;0.70;0.60;;;;;;;25.89;100.00;-21380.63;6278127;22;20368;-73
2021/09/11 15:15:05;;;;;;;0.70;0.50;;;;;;;24.95;100.00;-21355.56;6250904;22;20840;-72
2021/09/11 15:17:34;;;;;;;0.80;0.70;;;;;;;24.65;100.00;-21347.56;6277360;22;20421;-73
2021/09/11 15:20:04;;;;;;;0.70;0.60;;;;;;;25.15;100.00;-21360.84;6251264;22;20425;-73
2021/09/11 15:22:32;;;;;;;0.70;0.50;;;;;;;26.32;100.00;-21392.00;6278067;22;20403;-72
2021/09/11 15:25:03;;;;;;;0.80;0.70;;;;;;;26.69;100.00;-21401.75;6225473;22;20754;-72
2021/09/11 15:27:34;;;;;;;0.70;0.60;;;;;;;27.42;100.00;-21421.09;6224639;22;20796;-74
2021/09/11 15:30:03;;;;;;;0.70;0.50;;;;;;;28.08;100.00;-21438.66;6250097;22;20406;-72
2021/09/11 15:32:30;;;;;;;0.70;0.60;;;;;;;27.72;100.00;-21429.06;6277212;22;20371;-72
2021/09/11 15:35:03;;;;;;;0.80;0.80;;;;;;;27.05;100.00;-21411.22;6277081;22;20383;-73
2021/09/11 15:37:30;;;;;;;0.70;0.60;;;;;;;27.08;100.00;-21412.16;6250498;22;20480;-72
2021/09/11 15:39:58;;;;;;;0.70;0.60;;;;;;;27.19;100.00;-21415.00;6249959;22;20425;-72
2021/09/11 15:42:25;;;;;;;0.70;0.50;;;;;;;26.32;100.00;-21392.00;6250684;22;20390;-73
2021/09/11 15:44:55;;;;;;;0.70;0.50;;;;;;;26.46;100.00;-21395.81;6277112;22;20415;-72
2021/09/11 15:47:23;;;;;;;0.70;0.60;;;;;;;25.91;100.00;-21381.19;6249912;22;20434;-72
2021/09/11 15:49:50;;;;;;;1.20;0.77;;;;;;;25.36;100.00;-21366.53;6277145;22;20393;-72
2021/09/11 15:52:21;;;;;;;0.70;0.60;;;;;;;24.41;100.00;-21341.31;6250607;22;20882;-73
2021/09/11 15:54:49;;;;;;;0.80;0.77;;;;;;;23.96;100.00;-21329.22;6249619;22;20399;-72
2021/09/11 15:57:17;;;;;;;0.80;0.60;;;;;;;23.44;100.00;-21315.50;6248686;22;20398;-73
2021/09/11 15:59:45;;;;;;;0.80;0.70;;;;;;;23.15;100.00;-21307.88;6249452;22;20392;-72
2021/09/11 16:02:12;;;;;;;0.70;0.60;;;;;;;23.15;100.00;-21307.88;6250419;22;20755;-73
2021/09/11 16:04:41;;;;;;;0.80;0.67;;;;;;;22.84;100.00;-21299.56;6249179;22;20434;-72
2021/09/11 16:07:08;;;;;;;0.80;0.70;;;;;;;22.96;100.00;-21302.72;6249738;22;20461;-73
2021/09/11 16:09:35;;;;;;;0.70;0.60;;;;;;;22.85;100.00;-21299.84;6276696;22;20947;-73
2021/09/11 16:12:03;;;;;;;0.80;0.70;;;;;;;22.62;100.00;-21293.72;6227026;22;20872;-74
2021/09/11 16:14:30;;;;;;;0.80;0.70;;;;;;;22.66;100.00;-21294.81;6277687;22;20387;-73
2021/09/11 16:16:58;;;;;;;0.80;0.70;;;;;;;22.64;100.00;-21294.13;6277853;22;20378;-73
2021/09/11 16:19:25;;;;;;;10.20;7.97;;;;;;;22.70;100.00;-21295.63;6249533;22;20394;-72
2021/09/11 16:21:54;;;;;;;1.10;1.00;;;;;;;22.87;100.00;-21300.25;6276547;22;20403;-72
2021/09/11 16:24:20;;;;;;;3.53;3.33;;;;;;;22.81;100.00;-21298.63;6277154;22;20755;-72
2021/09/11 16:26:47;;;;;;;3.23;3.03;;;;;;;22.61;100.00;-21293.31;6249643;22;20418;-73
2021/09/11 16:29:15;;;;;;;1.07;0.97;;;;;;;22.69;100.00;-21295.34;6224181;22;20410;-72
2021/09/11 16:31:45;;;;;;;0.80;0.70;;;;;;;22.61;100.00;-21293.44;6250041;22;20391;-72
2021/09/11 16:34:12;;;;;;;0.80;0.60;;;;;;;22.49;100.00;-21290.19;6249535;22;20474;-72
2021/09/11 16:36:40;;;;;;;0.70;0.60;;;;;;;22.51;100.00;-21290.72;6277145;22;20421;-72
2021/09/11 16:39:08;;;;;;;0.70;0.60;;;;;;;22.48;100.00;-21289.91;6276461;22;20428;-73
2021/09/11 16:41:36;;;;;;;0.77;0.60;;;;;;;22.22;100.00;-21282.84;6276439;22;20894;-72
2021/09/11 16:44:03;;;;;;;0.70;0.60;;;;;;;22.21;100.00;-21282.56;6249398;22;20424;-72
2021/09/11 16:46:30;;;;;;;0.90;0.80;;;;;;;21.97;100.00;-21276.28;6249444;22;20362;-73
2021/09/11 16:48:57;;;;;;;0.80;0.70;;;;;;;21.90;100.00;-21274.50;6249544;22;20361;-72
2021/09/11 16:51:24;;;;;;;0.73;0.70;;;;;;;21.83;100.00;-21272.47;6222149;22;20400;-72
2021/09/11 16:53:51;;;;;;;0.70;0.60;;;;;;;21.93;100.00;-21275.19;6274089;22;20435;-73
2021/09/11 16:56:24;;;;;;;0.80;0.70;;;;;;;21.91;100.00;-21274.66;6247813;22;20396;-74
2021/09/11 16:58:51;;;;;;;0.80;0.70;;;;;;;21.87;100.00;-21273.56;6246616;22;20810;-73
2021/09/11 17:01:20;;;;;;;0.80;0.70;;;;;;;21.81;100.00;-21271.94;6247319;22;20375;-73
2021/09/11 17:03:47;;;;;;;0.70;0.60;;;;;;;21.71;100.00;-21269.47;6247312;22;20443;-73
2021/09/11 17:06:15;;;;;;;0.80;0.70;;;;;;;21.62;100.00;-21267.03;6249667;22;20361;-73
2021/09/11 17:08:46;;;;;;;0.80;0.70;;;;;;;21.68;100.00;-21268.53;6249409;22;20409;-73
2021/09/11 17:11:13;;;;;;;0.80;0.80;;;;;;;21.57;100.00;-21265.66;6276215;22;20397;-73
2021/09/11 17:13:41;;;;;;;0.70;0.60;;;;;;;21.58;100.00;-21265.94;6248680;22;20377;-74
2021/09/11 17:16:09;;;;;;;0.80;0.70;;;;;;;21.50;100.00;-21263.75;6250311;22;20362;-74
2021/09/11 17:18:36;;;;;;;0.80;0.60;;;;;;;21.40;100.00;-21261.03;6276599;22;20524;-73
2021/09/11 17:21:03;;;;;;;4.00;1.93;;;;;;;21.55;100.00;-21264.97;6276467;22;20917;-73
2021/09/11 17:23:30;;;;;;;0.77;0.60;;;;;;;21.55;100.00;-21264.97;6276219;22;20464;-73
2021/09/11 17:25:57;;;;;;;0.77;0.70;;;;;;;21.43;100.00;-21261.84;6276259;22;20371;-73
2021/09/11 17:28:24;;;;;;;0.80;0.70;;;;;;;21.48;100.00;-21263.19;6276236;22;20370;-73
2021/09/11 17:30:53;;;;;;;0.80;0.70;;;;;;;21.35;100.00;-21259.78;6249295;22;20403;-74
2021/09/11 17:33:20;;;;;;;0.90;0.90;;;;;;;21.32;100.00;-21258.84;6249400;22;20429;-74
2021/09/11 17:35:47;;;;;;;0.80;0.80;;;;;;;21.38;100.00;-21260.47;6250040;22;20420;-74
2021/09/11 17:38:14;;;;;;;0.73;0.63;;;;;;;21.28;100.00;-21257.75;6250283;22;20804;-75
2021/09/11 17:40:43;;;;;;;0.80;0.70;;;;;;;21.33;100.00;-21259.09;6249537;22;20362;-73
2021/09/11 17:43:10;;;;;;;0.80;0.70;;;;;;;21.34;100.00;-21259.38;6276103;22;20440;-72
2021/09/11 17:45:39;;;;;;;0.80;0.70;;;;;;;21.33;100.00;-21259.25;6278561;22;20411;-74
2021/09/11 17:48:07;;;;;;;0.80;0.60;;;;;;;21.13;100.00;-21253.78;6250845;22;20865;-73
2021/09/11 17:50:34;;;;;;;0.80;0.70;;;;;;;21.08;100.00;-21252.56;6251601;22;20671;-74
2021/09/11 17:53:03;;;;;;;0.70;0.60;;;;;;;20.95;100.00;-21249.16;6249226;22;20427;-74
2021/09/11 17:55:33;;;;;;;0.80;0.80;;;;;;;20.91;100.00;-21247.91;6250478;22;20506;-73
2021/09/11 17:58:01;;;;;;;0.80;0.80;;;;;;;20.64;100.00;-21240.81;6278421;22;20398;-72
2021/09/11 18:00:30;;;;;;;0.80;0.70;;;;;;;20.35;100.00;-21233.03;6225703;22;20437;-73
2021/09/11 18:03:04;;;;;;;0.70;0.70;;;;;;;20.21;100.00;-21229.34;6250971;22;20391;-74
2021/09/11 18:05:34;;;;;;;0.80;0.70;;;;;;;20.16;100.00;-21227.84;6278058;22;20476;-73
2021/09/11 18:08:01;;;;;;;0.93;0.80;;;;;;;20.12;100.00;-21226.91;6224606;22;20501;-74
2021/09/11 18:10:29;;;;;;;0.70;0.60;;;;;;;20.09;100.00;-21225.94;6278034;22;20404;-73
2021/09/11 18:12:56;;;;;;;1.10;1.00;;;;;;;20.07;100.00;-21225.53;6278416;22;20444;-74
2021/09/11 18:15:25;;;;;;;0.80;0.70;;;;;;;20.13;100.00;-21227.16;6277859;22;20362;-73
2021/09/11 18:17:56;;;;;;;1.00;0.90;;;;;;;19.87;100.00;-21220.19;6251013;22;20740;-73
2021/09/11 18:20:27;;;;;;;0.80;0.70;;;;;;;19.93;100.00;-21221.69;6277652;22;20387;-72
2021/09/11 18:22:56;;;;;;;0.80;0.70;;;;;;;20.02;100.00;-21224.16;6250927;22;20426;-73
2021/09/11 18:25:23;;;;;;;0.70;0.60;;;;;;;19.90;100.00;-21221.03;6277316;22;20901;-72
2021/09/11 18:27:51;;;;;;;0.80;0.80;;;;;;;19.74;100.00;-21216.66;6251480;22;20449;-74
2021/09/11 18:30:19;;;;;;;0.80;0.70;;;;;;;19.62;100.00;-21213.50;6250609;22;20365;-73
2021/09/11 18:32:45;;;;;;;0.80;0.70;;;;;;;19.69;100.00;-21215.41;6251329;22;20394;-72
2021/09/11 18:35:13;;;;;;;0.80;0.70;;;;;;;19.67;100.00;-21214.88;6250975;22;20402;-74
2021/09/11 18:37:40;;;;;;;0.70;0.60;;;;;;;19.65;100.00;-21214.31;6277849;22;20382;-73
2021/09/11 18:40:11;;;;;;;0.70;0.60;;;;;;;19.63;100.00;-21213.78;6250399;22;20425;-73
2021/09/11 18:42:38;;;;;;;0.70;0.60;;;;;;;19.55;100.00;-21211.59;6278533;22;20400;-74
2021/09/11 18:45:05;;;;;;;0.70;0.60;;;;;;;19.48;100.00;-21209.66;6250982;22;20433;-73
2021/09/11 18:47:33;;;;;;;0.80;0.70;;;;;;;19.43;100.00;-20800.00;6251208;22;20386;-73
2021/09/11 18:50:00;;;;;;;0.70;0.70;;;;;;;19.24;100.00;-19393.00;6278110;22;20415;-73
2021/09/11 18:52:26;;;;;;;0.70;0.60;;;;;;;19.16;100.00;-16875.25;6225475;22;20410;-72
2021/09/11 18:54:57;;;;;;;0.80;0.77;;;;;;;19.10;100.00;-14534.72;6277826;22;20394;-73
2021/09/11 18:57:25;;;;;;;0.70;0.70;;;;;;;19.15;100.00;-12774.63;6276754;22;20421;-74
2021/09/11 18:59:52;;;;;;;0.80;0.70;;;;;;;19.20;100.00;-12640.41;6250312;22;20834;-73
2021/09/11 19:02:19;;;;;;;0.70;0.60;;;;;;;19.15;100.00;-13324.38;6224852;22;20404;-73
2021/09/11 19:04:47;;;;;;;0.70;0.70;;;;;;;19.18;100.00;-13383.34;6277674;22;20436;-73
2021/09/11 19:07:15;;;;;;;0.80;0.70;;;;;;;19.19;100.00;-13658.28;6250657;22;20446;-73
2021/09/11 19:09:42;;;;;;;0.70;0.70;;;;;;;19.21;100.00;-14226.03;6277454;22;20399;-73
2021/09/11 19:12:09;;;;;;;0.80;0.70;;;;;;;19.15;100.00;-15224.81;6277337;22;20860;-73
2021/09/11 19:14:40;;;;;;;0.80;0.70;;;;;;;19.22;100.00;-16230.75;6277440;22;20874;-73
2021/09/11 19:17:07;;;;;;;0.70;0.60;;;;;;;19.25;100.00;-16531.28;6250080;22;20444;-72
2021/09/11 19:19:34;;;;;;;0.70;0.70;;;;;;;19.26;100.00;-17350.19;6250544;22;20782;-73
2021/09/11 19:22:01;;;;;;;0.80;0.70;;;;;;;19.18;100.00;-17869.66;6250348;22;20470;-73
2021/09/11 19:24:28;;;;;;;0.70;0.70;;;;;;;19.24;100.00;-17969.97;6250265;22;20466;-73
2021/09/11 19:26:56;;;;;;;0.70;0.63;;;;;;;19.20;100.00;-17872.53;6250406;22;20362;-73
2021/09/11 19:29:23;;;;;;;0.70;0.70;;;;;;;19.21;100.00;-17468.59;6277002;22;20387;-73
2021/09/11 19:31:51;;;;;;;0.80;0.70;;;;;;;19.20;100.00;-17277.75;6277380;22;20430;-74
2021/09/11 19:34:18;;;;;;;0.70;0.60;;;;;;;19.18;100.00;-16885.94;6250344;22;20418;-73